Wetterdaten: Dienstag, 16.06.2015
Datum Zeit Auen-Temp. Temp gefhlt Luftfeuchte Luftdruck Regen Wind Richtung Richtung Taupunkt Windben
16.06.2015 00:00 12,5 C 12,4 C 90 % 1020,3 hPa 0,0 mm 0,0 km/h (0 Bft) S 180 10,9 C 0,0 km/h (0 Bft)
16.06.2015 00:05 12,5 C 12,4 C 90 % 1020,3 hPa 0,0 mm 0,0 km/h (0 Bft) S 180 10,9 C 0,0 km/h (0 Bft)
16.06.2015 00:10 12,5 C 12,4 C 91 % 1020,3 hPa 0,0 mm 0,0 km/h (0 Bft) S-SO 157 11,1 C 0,0 km/h (0 Bft)
16.06.2015 00:15 12,4 C 12,3 C 90 % 1020,4 hPa 0,0 mm 0,0 km/h (0 Bft) S-SO 157 10,8 C 0,0 km/h (0 Bft)
16.06.2015 00:20 12,4 C 12,3 C 91 % 1020,4 hPa 0,0 mm 0,0 km/h (0 Bft) S 180 11,0 C 0,0 km/h (0 Bft)
16.06.2015 00:25 12,4 C 12,3 C 91 % 1020,4 hPa 0,0 mm 0,0 km/h (0 Bft) S 180 11,0 C 0,0 km/h (0 Bft)
16.06.2015 00:30 12,4 C 12,3 C 91 % 1020,4 hPa 0,0 mm 0,0 km/h (0 Bft) S 180 11,0 C 0,0 km/h (0 Bft)
16.06.2015 00:35 12,4 C 12,3 C 91 % 1020,3 hPa 0,0 mm 0,0 km/h (0 Bft) S-SO 157 11,0 C 0,0 km/h (0 Bft)
16.06.2015 00:40 12,4 C 12,3 C 91 % 1020,3 hPa 0,0 mm 0,0 km/h (0 Bft) S 180 11,0 C 0,0 km/h (0 Bft)
16.06.2015 00:45 12,4 C 12,3 C 91 % 1020,3 hPa 0,0 mm 0,0 km/h (0 Bft) S-SO 157 11,0 C 0,0 km/h (0 Bft)
16.06.2015 00:50 12,4 C 12,3 C 91 % 1020,3 hPa 0,0 mm 0,0 km/h (0 Bft) SO 135 11,0 C 0,0 km/h (0 Bft)
16.06.2015 00:55 12,4 C 12,3 C 91 % 1020,4 hPa 0,0 mm 0,0 km/h (0 Bft) SO 135 11,0 C 0,0 km/h (0 Bft)
16.06.2015 01:00 12,4 C 12,3 C 91 % 1020,4 hPa 0,0 mm 0,0 km/h (0 Bft) SO 135 11,0 C 0,0 km/h (0 Bft)
16.06.2015 01:05 12,4 C 12,3 C 91 % 1020,4 hPa 0,0 mm 0,0 km/h (0 Bft) SO 135 11,0 C 0,0 km/h (0 Bft)
16.06.2015 01:10 12,4 C 12,3 C 91 % 1020,4 hPa 0,0 mm 0,0 km/h (0 Bft) S 180 11,0 C 0,0 km/h (0 Bft)
16.06.2015 01:15 12,4 C 12,3 C 91 % 1020,3 hPa 0,0 mm 0,0 km/h (0 Bft) S 180 11,0 C 0,0 km/h (0 Bft)
16.06.2015 01:20 12,4 C 12,4 C 88 % 1020,3 hPa 0,0 mm 0,0 km/h (0 Bft) S 180 10,5 C 0,0 km/h (0 Bft)
16.06.2015 01:25 12,5 C 12,4 C 91 % 1020,3 hPa 0,0 mm 0,0 km/h (0 Bft) SW 225 11,1 C 0,0 km/h (0 Bft)
16.06.2015 01:30 12,5 C 12,4 C 91 % 1020,3 hPa 0,0 mm 0,0 km/h (0 Bft) SW 225 11,1 C 0,0 km/h (0 Bft)
16.06.2015 01:35 12,5 C 12,4 C 91 % 1020,4 hPa 0,0 mm 0,0 km/h (0 Bft) S 180 11,1 C 0,0 km/h (0 Bft)
16.06.2015 01:40 12,5 C 12,4 C 91 % 1020,4 hPa 0,0 mm 0,0 km/h (0 Bft) S 180 11,1 C 0,0 km/h (0 Bft)
16.06.2015 01:45 12,5 C 12,4 C 91 % 1020,4 hPa 0,0 mm 0,0 km/h (0 Bft) S-SO 157 11,1 C 0,0 km/h (0 Bft)
16.06.2015 01:50 12,5 C 12,4 C 91 % 1020,4 hPa 0,0 mm 0,0 km/h (0 Bft) S-SO 157 11,1 C 0,0 km/h (0 Bft)
16.06.2015 01:55 12,5 C 12,4 C 91 % 1020,3 hPa 0,0 mm 0,0 km/h (0 Bft) S-SO 157 11,1 C 0,0 km/h (0 Bft)
16.06.2015 02:00 12,5 C 12,4 C 91 % 1020,3 hPa 0,0 mm 0,3 km/h (0 Bft) O-SO 112 11,1 C 0,0 km/h (0 Bft)
16.06.2015 02:05 12,5 C 12,4 C 91 % 1020,3 hPa 0,0 mm 0,3 km/h (0 Bft) O 90 11,1 C 0,0 km/h (0 Bft)
16.06.2015 02:10 12,5 C 12,4 C 91 % 1020,3 hPa 0,0 mm 0,0 km/h (0 Bft) S-SO 157 11,1 C 0,0 km/h (0 Bft)
16.06.2015 02:15 12,5 C 12,4 C 91 % 1020,2 hPa 0,0 mm 0,0 km/h (0 Bft) SO 135 11,1 C 0,0 km/h (0 Bft)
16.06.2015 02:20 12,5 C 12,4 C 91 % 1020,2 hPa 0,0 mm 0,0 km/h (0 Bft) S 180 11,1 C 0,0 km/h (0 Bft)
16.06.2015 02:25 12,5 C 12,4 C 91 % 1020,2 hPa 0,0 mm 0,0 km/h (0 Bft) O-SO 112 11,1 C 0,0 km/h (0 Bft)
16.06.2015 02:30 12,5 C 12,4 C 91 % 1020,2 hPa 0,0 mm 0,0 km/h (0 Bft) O 90 11,1 C 0,0 km/h (0 Bft)
16.06.2015 02:35 12,5 C 12,4 C 91 % 1020,3 hPa 0,0 mm 0,0 km/h (0 Bft) S-SO 157 11,1 C 0,0 km/h (0 Bft)
16.06.2015 02:40 12,5 C 12,4 C 91 % 1020,3 hPa 0,0 mm 0,0 km/h (0 Bft) O-SO 112 11,1 C 0,0 km/h (0 Bft)
16.06.2015 02:45 12,5 C 12,4 C 91 % 1020,3 hPa 0,0 mm 0,0 km/h (0 Bft) O-NO 67 11,1 C 0,0 km/h (0 Bft)
16.06.2015 02:50 12,5 C 12,5 C 88 % 1020,3 hPa 0,0 mm 0,0 km/h (0 Bft) O-SO 112 10,6 C 0,0 km/h (0 Bft)
16.06.2015 02:55 12,5 C 12,4 C 91 % 1020,2 hPa 0,0 mm 0,0 km/h (0 Bft) N-NO 22 11,1 C 0,0 km/h (0 Bft)
16.06.2015 03:00 12,5 C 12,4 C 91 % 1020,2 hPa 0,0 mm 0,0 km/h (0 Bft) O-SO 112 11,1 C 0,0 km/h (0 Bft)
16.06.2015 03:05 12,5 C 12,4 C 91 % 1020,2 hPa 0,7 mm 0,0 km/h (0 Bft) S-SO 157 11,1 C 0,0 km/h (0 Bft)
16.06.2015 03:10 12,4 C 12,4 C 88 % 1020,2 hPa 0,0 mm 0,3 km/h (0 Bft) O 90 10,5 C 4,1 km/h (1 Bft)
16.06.2015 03:15 12,4 C 12,3 C 91 % 1020,2 hPa 0,0 mm 0,3 km/h (0 Bft) O-SO 112 11,0 C 0,0 km/h (0 Bft)
16.06.2015 03:20 12,4 C 12,3 C 91 % 1020,2 hPa 0,0 mm 0,0 km/h (0 Bft) S 180 11,0 C 0,0 km/h (0 Bft)
16.06.2015 03:25 12,4 C 12,3 C 91 % 1020,2 hPa 0,0 mm 0,0 km/h (0 Bft) O-NO 67 11,0 C 0,0 km/h (0 Bft)
16.06.2015 03:30 12,4 C 12,3 C 91 % 1020,2 hPa 0,0 mm 0,0 km/h (0 Bft) NO 45 11,0 C 0,0 km/h (0 Bft)
16.06.2015 03:35 12,4 C 12,3 C 91 % 1020,2 hPa 0,0 mm 0,3 km/h (0 Bft) NO 45 11,0 C 0,0 km/h (0 Bft)
16.06.2015 03:40 12,4 C 12,3 C 91 % 1020,2 hPa 0,0 mm 0,3 km/h (0 Bft) O-NO 67 11,0 C 0,0 km/h (0 Bft)
16.06.2015 03:45 12,4 C 12,4 C 88 % 1020,2 hPa 0,0 mm 0,0 km/h (0 Bft) NO 45 10,5 C 3,4 km/h (1 Bft)
16.06.2015 03:50 12,4 C 12,4 C 88 % 1020,2 hPa 0,0 mm 0,3 km/h (0 Bft) O-SO 112 10,5 C 0,0 km/h (0 Bft)
16.06.2015 03:55 12,4 C 12,3 C 91 % 1020,1 hPa 0,0 mm 1,3 km/h (1 Bft) O-NO 67 11,0 C 2,6 km/h (1 Bft)
16.06.2015 04:00 12,4 C 12,3 C 92 % 1020,1 hPa 0,0 mm 1,0 km/h (0 Bft) O-NO 67 11,1 C 6,5 km/h (2 Bft)
16.06.2015 04:05 12,4 C 12,3 C 92 % 1020,1 hPa 0,0 mm 0,5 km/h (0 Bft) O-NO 67 11,1 C 0,0 km/h (0 Bft)
16.06.2015 04:10 12,4 C 12,3 C 92 % 1020,1 hPa 0,0 mm 2,1 km/h (1 Bft) N-NO 22 11,1 C 5,4 km/h (1 Bft)
16.06.2015 04:15 12,4 C 12,4 C 88 % 1020,1 hPa 0,0 mm 1,8 km/h (1 Bft) O-NO 67 10,5 C 0,0 km/h (0 Bft)
16.06.2015 04:20 12,5 C 12,4 C 92 % 1020,1 hPa 0,0 mm 1,0 km/h (0 Bft) NW 315 11,2 C 0,0 km/h (0 Bft)
16.06.2015 04:25 12,5 C 12,4 C 92 % 1020,1 hPa 0,0 mm 0,5 km/h (0 Bft) O-SO 112 11,2 C 0,0 km/h (0 Bft)
16.06.2015 04:30 12,4 C 12,4 C 88 % 1020,1 hPa 0,0 mm 0,3 km/h (0 Bft) O-NO 67 10,5 C 0,0 km/h (0 Bft)
16.06.2015 04:35 12,5 C 12,4 C 92 % 1020,2 hPa 0,0 mm 0,3 km/h (0 Bft) N-NO 22 11,2 C 2,6 km/h (1 Bft)
16.06.2015 04:40 12,5 C 12,4 C 92 % 1020,2 hPa 0,0 mm 0,5 km/h (0 Bft) NO 45 11,2 C 2,6 km/h (1 Bft)
16.06.2015 04:45 12,5 C 12,4 C 92 % 1020,2 hPa 0,0 mm 0,5 km/h (0 Bft) SO 135 11,2 C 0,0 km/h (0 Bft)
16.06.2015 04:50 12,5 C 12,4 C 92 % 1020,2 hPa 0,0 mm 0,0 km/h (0 Bft) S 180 11,2 C 0,0 km/h (0 Bft)
16.06.2015 04:55 12,5 C 12,4 C 92 % 1020,1 hPa 0,0 mm 0,0 km/h (0 Bft) O 90 11,2 C 0,0 km/h (0 Bft)
16.06.2015 05:00 12,5 C 12,4 C 92 % 1020,1 hPa 0,0 mm 0,8 km/h (0 Bft) N-NO 22 11,2 C 0,0 km/h (0 Bft)
16.06.2015 05:05 12,5 C 12,4 C 92 % 1020,1 hPa 0,0 mm 0,5 km/h (0 Bft) S 180 11,2 C 0,0 km/h (0 Bft)
16.06.2015 05:10 12,5 C 12,4 C 92 % 1020,1 hPa 0,0 mm 0,3 km/h (0 Bft) O-NO 67 11,2 C 3,1 km/h (1 Bft)
16.06.2015 05:15 12,5 C 12,4 C 92 % 1020,1 hPa 0,0 mm 0,8 km/h (0 Bft) NO 45 11,2 C 3,4 km/h (1 Bft)
16.06.2015 05:20 12,5 C 12,5 C 88 % 1020,1 hPa 0,0 mm 1,0 km/h (0 Bft) N-NO 22 10,6 C 0,0 km/h (0 Bft)
16.06.2015 05:25 12,5 C 12,4 C 92 % 1020,1 hPa 0,0 mm 0,8 km/h (0 Bft) O-NO 67 11,2 C 0,0 km/h (0 Bft)
16.06.2015 05:30 12,5 C 12,5 C 92 % 1020,1 hPa 0,0 mm 1,0 km/h (0 Bft) N-NO 22 11,2 C 6,0 km/h (2 Bft)
16.06.2015 05:35 12,5 C 12,4 C 92 % 1020,2 hPa 0,0 mm 1,3 km/h (1 Bft) O-SO 112 11,2 C 2,6 km/h (1 Bft)
16.06.2015 05:40 12,5 C 12,4 C 92 % 1020,2 hPa 0,0 mm 0,8 km/h (0 Bft) SO 135 11,2 C 0,0 km/h (0 Bft)
16.06.2015 05:45 12,5 C 12,4 C 92 % 1020,2 hPa 0,0 mm 0,3 km/h (0 Bft) O-SO 112 11,2 C 0,0 km/h (0 Bft)
16.06.2015 05:50 12,5 C 12,5 C 92 % 1020,2 hPa 0,0 mm 0,5 km/h (0 Bft) O-NO 67 11,2 C 0,0 km/h (0 Bft)
16.06.2015 05:55 12,5 C 12,5 C 92 % 1020,3 hPa 0,0 mm 1,0 km/h (0 Bft) O-SO 112 11,2 C 0,0 km/h (0 Bft)
16.06.2015 06:00 12,5 C 12,5 C 92 % 1020,3 hPa 0,0 mm 1,8 km/h (1 Bft) NO 45 11,2 C 0,0 km/h (0 Bft)
16.06.2015 06:05 12,5 C 12,5 C 88 % 1020,3 hPa 0,0 mm 1,8 km/h (1 Bft) N-NO 22 10,6 C 0,0 km/h (0 Bft)
16.06.2015 06:10 12,5 C 12,5 C 88 % 1020,3 hPa 0,0 mm 0,3 km/h (0 Bft) SW 225 10,6 C 0,0 km/h (0 Bft)
16.06.2015 06:15 12,6 C 12,5 C 92 % 1020,2 hPa 0,0 mm 0,3 km/h (0 Bft) O-SO 112 11,3 C 0,0 km/h (0 Bft)
16.06.2015 06:20 12,5 C 12,5 C 88 % 1020,2 hPa 0,0 mm 0,5 km/h (0 Bft) O-NO 67 10,6 C 0,0 km/h (0 Bft)
16.06.2015 06:25 12,6 C 12,6 C 88 % 1020,2 hPa 0,0 mm 0,5 km/h (0 Bft) O-NO 67 10,7 C 0,0 km/h (0 Bft)
16.06.2015 06:30 12,6 C 12,6 C 88 % 1020,2 hPa 0,0 mm 0,0 km/h (0 Bft) SO 135 10,7 C 0,0 km/h (0 Bft)
16.06.2015 06:35 12,6 C 12,5 C 92 % 1020,1 hPa 0,0 mm 0,0 km/h (0 Bft) O-SO 112 11,3 C 0,0 km/h (0 Bft)
16.06.2015 06:40 12,6 C 12,6 C 88 % 1020,1 hPa 0,0 mm 0,3 km/h (0 Bft) O 90 10,7 C 0,0 km/h (0 Bft)
16.06.2015 06:45 12,6 C 12,6 C 88 % 1020,1 hPa 0,0 mm 0,3 km/h (0 Bft) NO 45 10,7 C 0,0 km/h (0 Bft)
16.06.2015 06:50 12,7 C 12,7 C 88 % 1020,1 hPa 0,0 mm 0,5 km/h (0 Bft) O-NO 67 10,8 C 3,9 km/h (1 Bft)
16.06.2015 06:55 12,7 C 12,7 C 88 % 1020,4 hPa 0,0 mm 0,5 km/h (0 Bft) O-NO 67 10,8 C 0,0 km/h (0 Bft)
16.06.2015 07:00 12,7 C 12,8 C 88 % 1020,4 hPa 0,0 mm 0,5 km/h (0 Bft) NO 45 10,8 C 0,0 km/h (0 Bft)
16.06.2015 07:05 12,7 C 12,8 C 88 % 1020,4 hPa 0,0 mm 0,5 km/h (0 Bft) O-NO 67 10,8 C 0,0 km/h (0 Bft)
16.06.2015 07:10 12,8 C 12,9 C 89 % 1020,4 hPa 0,0 mm 0,8 km/h (0 Bft) O-NO 67 11,0 C 0,0 km/h (0 Bft)
16.06.2015 07:15 12,8 C 12,9 C 89 % 1020,4 hPa 0,0 mm 0,8 km/h (0 Bft) O-NO 67 11,0 C 0,0 km/h (0 Bft)
16.06.2015 07:20 12,9 C 13,0 C 89 % 1020,4 hPa 0,0 mm 0,5 km/h (0 Bft) O-NO 67 11,1 C 0,0 km/h (0 Bft)
16.06.2015 07:25 13,0 C 13,1 C 88 % 1020,4 hPa 0,0 mm 0,5 km/h (0 Bft) O-NO 67 11,1 C 4,7 km/h (1 Bft)
16.06.2015 07:30 13,0 C 13,2 C 88 % 1020,4 hPa 0,0 mm 0,8 km/h (0 Bft) O-NO 67 11,1 C 0,0 km/h (0 Bft)
16.06.2015 07:35 13,0 C 13,2 C 88 % 1020,4 hPa 0,0 mm 0,8 km/h (0 Bft) O-NO 67 11,1 C 0,0 km/h (0 Bft)
16.06.2015 07:40 13,0 C 13,4 C 88 % 1020,4 hPa 0,0 mm 1,3 km/h (1 Bft) N-NO 22 11,1 C 0,0 km/h (0 Bft)
16.06.2015 07:45 13,1 C 13,4 C 88 % 1020,4 hPa 0,0 mm 2,3 km/h (1 Bft) NO 45 11,2 C 0,0 km/h (0 Bft)
16.06.2015 07:50 13,2 C 13,5 C 88 % 1020,4 hPa 0,0 mm 2,6 km/h (1 Bft) NO 45 11,3 C 8,0 km/h (2 Bft)
16.06.2015 07:55 13,2 C 13,4 C 88 % 1020,6 hPa 0,0 mm 2,8 km/h (1 Bft) O-NO 67 11,3 C 3,6 km/h (1 Bft)
16.06.2015 08:00 13,2 C 13,5 C 88 % 1020,6 hPa 0,0 mm 4,4 km/h (1 Bft) S-SW 202 11,3 C 9,3 km/h (2 Bft)
16.06.2015 08:05 13,2 C 13,6 C 88 % 1020,6 hPa 0,0 mm 4,7 km/h (1 Bft) NO 45 11,3 C 7,3 km/h (2 Bft)
16.06.2015 08:10 13,2 C 13,4 C 88 % 1020,6 hPa 0,0 mm 4,1 km/h (1 Bft) O-SO 112 11,3 C 9,8 km/h (2 Bft)
16.06.2015 08:15 13,2 C 13,4 C 88 % 1020,6 hPa 0,0 mm 4,4 km/h (1 Bft) N-NO 22 11,3 C 7,8 km/h (2 Bft)
16.06.2015 08:20 13,2 C 13,4 C 88 % 1020,6 hPa 0,0 mm 5,2 km/h (1 Bft) N-NO 22 11,3 C 10,4 km/h (2 Bft)
16.06.2015 08:25 13,1 C 13,4 C 88 % 1020,6 hPa 0,0 mm 4,9 km/h (1 Bft) N-NO 22 11,2 C 4,7 km/h (1 Bft)
16.06.2015 08:30 13,3 C 13,6 C 88 % 1020,6 hPa 0,0 mm 4,1 km/h (1 Bft) SO 135 11,4 C 8,0 km/h (2 Bft)
16.06.2015 08:35 13,3 C 13,7 C 88 % 1020,7 hPa 0,0 mm 3,9 km/h (1 Bft) NO 45 11,4 C 5,7 km/h (1 Bft)
16.06.2015 08:40 13,4 C 13,8 C 88 % 1020,7 hPa 0,0 mm 3,9 km/h (1 Bft) O-NO 67 11,5 C 2,8 km/h (1 Bft)
16.06.2015 08:45 13,4 C 14,0 C 88 % 1020,7 hPa 0,0 mm 3,6 km/h (1 Bft) NO 45 11,5 C 3,9 km/h (1 Bft)
16.06.2015 08:50 13,5 C 14,1 C 88 % 1020,7 hPa 0,0 mm 3,4 km/h (1 Bft) O-NO 67 11,6 C 3,9 km/h (1 Bft)
16.06.2015 08:55 13,6 C 14,2 C 88 % 1020,7 hPa 0,0 mm 3,4 km/h (1 Bft) N-NO 22 11,6 C 7,0 km/h (2 Bft)
16.06.2015 09:00 13,8 C 14,5 C 88 % 1020,7 hPa 0,0 mm 4,1 km/h (1 Bft) N-NW 337 11,8 C 7,0 km/h (2 Bft)
16.06.2015 09:05 13,8 C 14,6 C 87 % 1020,7 hPa 0,0 mm 3,6 km/h (1 Bft) NO 45 11,7 C 5,7 km/h (1 Bft)
16.06.2015 09:10 14,2 C 15,6 C 87 % 1020,7 hPa 0,0 mm 3,6 km/h (1 Bft) O 90 12,1 C 3,9 km/h (1 Bft)
16.06.2015 09:15 14,4 C 16,0 C 87 % 1020,7 hPa 0,0 mm 3,9 km/h (1 Bft) O-NO 67 12,3 C 7,5 km/h (2 Bft)
16.06.2015 09:20 14,6 C 16,4 C 87 % 1020,7 hPa 0,0 mm 3,4 km/h (1 Bft) O-NO 67 12,5 C 6,5 km/h (2 Bft)
16.06.2015 09:25 14,5 C 16,0 C 86 % 1020,7 hPa 0,0 mm 4,1 km/h (1 Bft) O-NO 67 12,2 C 9,6 km/h (2 Bft)
16.06.2015 09:30 14,4 C 15,7 C 86 % 1020,7 hPa 0,0 mm 5,2 km/h (1 Bft) O-NO 67 12,1 C 7,8 km/h (2 Bft)
16.06.2015 09:35 14,5 C 15,8 C 86 % 1020,9 hPa 0,0 mm 3,4 km/h (1 Bft) N 360 12,2 C 0,0 km/h (0 Bft)
16.06.2015 09:40 14,5 C 15,8 C 86 % 1020,9 hPa 0,0 mm 2,6 km/h (1 Bft) O-SO 112 12,2 C 6,0 km/h (2 Bft)
16.06.2015 09:45 14,6 C 15,9 C 86 % 1020,9 hPa 0,0 mm 2,6 km/h (1 Bft) N-NO 22 12,3 C 4,1 km/h (1 Bft)
16.06.2015 09:50 14,6 C 16,2 C 86 % 1020,9 hPa 0,0 mm 3,9 km/h (1 Bft) N 360 12,3 C 7,0 km/h (2 Bft)
16.06.2015 09:55 14,7 C 16,3 C 85 % 1021,0 hPa 0,0 mm 4,7 km/h (1 Bft) N-NW 337 12,2 C 3,4 km/h (1 Bft)
16.06.2015 10:00 14,7 C 16,7 C 85 % 1021,0 hPa 0,0 mm 4,7 km/h (1 Bft) O-NO 67 12,2 C 10,6 km/h (2 Bft)
16.06.2015 10:05 14,9 C 17,0 C 85 % 1021,0 hPa 0,0 mm 3,6 km/h (1 Bft) O-NO 67 12,4 C 4,1 km/h (1 Bft)
16.06.2015 10:10 15,0 C 17,6 C 84 % 1021,0 hPa 0,0 mm 4,1 km/h (1 Bft) NO 45 12,3 C 4,9 km/h (1 Bft)
16.06.2015 10:15 15,2 C 18,1 C 84 % 1021,0 hPa 0,0 mm 4,4 km/h (1 Bft) NO 45 12,5 C 9,1 km/h (2 Bft)
16.06.2015 10:20 15,4 C 19,1 C 83 % 1021,0 hPa 0,0 mm 5,2 km/h (1 Bft) N-NW 337 12,5 C 6,7 km/h (2 Bft)
16.06.2015 10:25 15,5 C 19,2 C 83 % 1021,0 hPa 0,0 mm 6,0 km/h (2 Bft) NO 45 12,6 C 6,0 km/h (2 Bft)
16.06.2015 10:30 15,8 C 19,3 C 83 % 1021,0 hPa 0,0 mm 6,2 km/h (2 Bft) O 90 12,9 C 12,2 km/h (2 Bft)
16.06.2015 10:35 16,0 C 20,7 C 81 % 1021,1 hPa 0,0 mm 4,7 km/h (1 Bft) O-SO 112 12,7 C 3,1 km/h (1 Bft)
16.06.2015 10:40 16,4 C 21,8 C 80 % 1021,1 hPa 0,0 mm 4,1 km/h (1 Bft) N-NW 337 12,9 C 4,7 km/h (1 Bft)
16.06.2015 10:45 16,7 C 22,2 C 79 % 1021,1 hPa 0,0 mm 4,4 km/h (1 Bft) O-NO 67 13,0 C 6,0 km/h (2 Bft)
16.06.2015 10:50 16,6 C 22,8 C 78 % 1021,1 hPa 0,0 mm 4,1 km/h (1 Bft) S-SO 157 12,7 C 2,8 km/h (1 Bft)
16.06.2015 10:55 16,7 C 22,6 C 78 % 1021,2 hPa 0,0 mm 3,4 km/h (1 Bft) O-NO 67 12,8 C 4,7 km/h (1 Bft)
16.06.2015 11:00 17,1 C 24,1 C 76 % 1021,2 hPa 0,0 mm 3,9 km/h (1 Bft) N-NO 22 12,8 C 10,1 km/h (2 Bft)
16.06.2015 11:05 17,2 C 23,7 C 75 % 1021,2 hPa 0,0 mm 5,2 km/h (1 Bft) NO 45 12,7 C 12,7 km/h (3 Bft)
16.06.2015 11:10 16,8 C 22,2 C 75 % 1021,2 hPa 0,0 mm 7,0 km/h (2 Bft) O-NO 67 12,3 C 14,2 km/h (3 Bft)
16.06.2015 11:15 16,6 C 21,3 C 75 % 1021,4 hPa 0,0 mm 7,3 km/h (2 Bft) N-NW 337 12,1 C 11,4 km/h (2 Bft)
16.06.2015 11:20 16,2 C 19,7 C 75 % 1021,4 hPa 0,0 mm 7,5 km/h (2 Bft) NW 315 11,8 C 11,4 km/h (2 Bft)
16.06.2015 11:25 16,1 C 19,1 C 75 % 1021,4 hPa 0,0 mm 7,5 km/h (2 Bft) N-NO 22 11,7 C 9,1 km/h (2 Bft)
16.06.2015 11:30 16,0 C 18,4 C 76 % 1021,4 hPa 0,0 mm 8,0 km/h (2 Bft) N-NW 337 11,8 C 19,4 km/h (3 Bft)
16.06.2015 11:35 15,9 C 18,1 C 77 % 1021,6 hPa 0,0 mm 9,1 km/h (2 Bft) N-NO 22 11,9 C 13,7 km/h (3 Bft)
16.06.2015 11:40 15,9 C 18,0 C 77 % 1021,6 hPa 0,0 mm 9,6 km/h (2 Bft) NO 45 11,9 C 11,4 km/h (2 Bft)
16.06.2015 11:45 15,9 C 18,1 C 77 % 1021,6 hPa 0,0 mm 10,4 km/h (2 Bft) W-NW 292 11,9 C 9,8 km/h (2 Bft)
16.06.2015 11:50 15,9 C 18,1 C 77 % 1021,6 hPa 0,0 mm 10,1 km/h (2 Bft) N-NW 337 11,9 C 14,5 km/h (3 Bft)
16.06.2015 11:55 15,9 C 18,0 C 77 % 1021,4 hPa 0,0 mm 9,6 km/h (2 Bft) O-SO 112 11,9 C 6,0 km/h (2 Bft)
16.06.2015 12:00 15,9 C 18,4 C 76 % 1021,4 hPa 0,0 mm 8,8 km/h (2 Bft) NO 45 11,7 C 4,9 km/h (1 Bft)
16.06.2015 12:05 15,9 C 18,4 C 76 % 1021,4 hPa 0,0 mm 7,5 km/h (2 Bft) N-NO 22 11,7 C 4,9 km/h (1 Bft)
16.06.2015 12:10 16,4 C 19,3 C 75 % 1021,4 hPa 0,0 mm 5,7 km/h (1 Bft) N-NO 22 12,0 C 5,4 km/h (1 Bft)
16.06.2015 12:15 16,5 C 19,6 C 75 % 1021,4 hPa 0,0 mm 6,5 km/h (2 Bft) NO 45 12,1 C 6,7 km/h (2 Bft)
16.06.2015 12:20 16,7 C 20,3 C 74 % 1021,4 hPa 0,0 mm 7,0 km/h (2 Bft) NO 45 12,0 C 3,6 km/h (1 Bft)
16.06.2015 12:25 16,8 C 20,7 C 73 % 1021,4 hPa 0,0 mm 6,5 km/h (2 Bft) O-NO 67 11,9 C 12,2 km/h (2 Bft)
16.06.2015 12:30 16,7 C 20,4 C 72 % 1021,4 hPa 0,0 mm 6,0 km/h (2 Bft) O-SO 112 11,6 C 8,3 km/h (2 Bft)
16.06.2015 12:35 16,7 C 20,2 C 72 % 1021,4 hPa 0,0 mm 6,2 km/h (2 Bft) NO 45 11,6 C 10,4 km/h (2 Bft)
16.06.2015 12:40 16,6 C 19,6 C 72 % 1021,4 hPa 0,0 mm 6,7 km/h (2 Bft) N-NW 337 11,5 C 9,3 km/h (2 Bft)
16.06.2015 12:45 16,5 C 19,4 C 72 % 1021,4 hPa 0,0 mm 6,2 km/h (2 Bft) O-NO 67 11,4 C 5,2 km/h (1 Bft)
16.06.2015 12:50 16,4 C 19,1 C 72 % 1021,4 hPa 0,0 mm 4,9 km/h (1 Bft) O-NO 67 11,3 C 8,0 km/h (2 Bft)
16.06.2015 12:55 16,3 C 18,8 C 72 % 1021,4 hPa 0,0 mm 5,7 km/h (1 Bft) O-NO 67 11,2 C 7,0 km/h (2 Bft)
16.06.2015 13:00 16,1 C 18,3 C 72 % 1021,4 hPa 0,0 mm 6,2 km/h (2 Bft) NO 45 11,0 C 8,5 km/h (2 Bft)
16.06.2015 13:05 15,9 C 17,9 C 73 % 1021,4 hPa 0,0 mm 7,0 km/h (2 Bft) O-NO 67 11,1 C 4,9 km/h (1 Bft)
16.06.2015 13:10 15,9 C 17,6 C 73 % 1021,4 hPa 0,0 mm 6,7 km/h (2 Bft) NO 45 11,1 C 12,4 km/h (3 Bft)
16.06.2015 13:15 15,9 C 17,5 C 73 % 1021,4 hPa 0,0 mm 4,9 km/h (1 Bft) O-SO 112 11,1 C 3,1 km/h (1 Bft)
16.06.2015 13:20 16,0 C 17,8 C 73 % 1021,4 hPa 0,0 mm 4,9 km/h (1 Bft) O-NO 67 11,2 C 7,8 km/h (2 Bft)
16.06.2015 13:25 16,0 C 18,1 C 73 % 1021,4 hPa 0,0 mm 6,5 km/h (2 Bft) O-NO 67 11,2 C 13,2 km/h (3 Bft)
16.06.2015 13:30 16,3 C 18,7 C 73 % 1021,4 hPa 0,0 mm 5,4 km/h (1 Bft) N-NO 22 11,4 C 6,0 km/h (2 Bft)
16.06.2015 13:35 16,5 C 19,0 C 72 % 1021,2 hPa 0,0 mm 6,0 km/h (2 Bft) O-NO 67 11,4 C 11,9 km/h (2 Bft)
16.06.2015 13:40 16,6 C 19,1 C 70 % 1021,2 hPa 0,0 mm 7,3 km/h (2 Bft) O-NO 67 11,1 C 10,1 km/h (2 Bft)
16.06.2015 13:45 16,7 C 19,4 C 70 % 1021,2 hPa 0,0 mm 6,0 km/h (2 Bft) NO 45 11,2 C 11,9 km/h (2 Bft)
16.06.2015 13:50 16,7 C 19,5 C 70 % 1021,2 hPa 0,0 mm 5,7 km/h (1 Bft) O-NO 67 11,2 C 9,8 km/h (2 Bft)
16.06.2015 13:55 16,6 C 19,4 C 69 % 1021,2 hPa 0,0 mm 6,7 km/h (2 Bft) O-NO 67 10,9 C 7,5 km/h (2 Bft)
16.06.2015 14:00 16,7 C 19,2 C 69 % 1021,2 hPa 0,0 mm 8,3 km/h (2 Bft) W-NW 292 11,0 C 7,8 km/h (2 Bft)
16.06.2015 14:05 16,6 C 19,1 C 69 % 1021,2 hPa 0,0 mm 7,8 km/h (2 Bft) N-NW 337 10,9 C 7,0 km/h (2 Bft)
16.06.2015 14:10 16,5 C 18,8 C 69 % 1021,2 hPa 0,0 mm 7,5 km/h (2 Bft) O-NO 67 10,8 C 10,4 km/h (2 Bft)
16.06.2015 14:15 16,5 C 18,7 C 69 % 1021,1 hPa 0,0 mm 7,8 km/h (2 Bft) O-SO 112 10,8 C 6,7 km/h (2 Bft)
16.06.2015 14:20 16,5 C 18,7 C 69 % 1021,1 hPa 0,0 mm 6,2 km/h (2 Bft) NO 45 10,8 C 5,4 km/h (1 Bft)
16.06.2015 14:25 16,6 C 18,8 C 70 % 1021,1 hPa 0,0 mm 5,7 km/h (1 Bft) N-NO 22 11,1 C 9,8 km/h (2 Bft)
16.06.2015 14:30 16,3 C 18,5 C 70 % 1021,1 hPa 0,0 mm 6,5 km/h (2 Bft) NO 45 10,8 C 15,3 km/h (3 Bft)
16.06.2015 14:35 16,2 C 18,2 C 70 % 1021,1 hPa 0,0 mm 6,7 km/h (2 Bft) NO 45 10,7 C 13,7 km/h (3 Bft)
16.06.2015 14:40 16,2 C 18,1 C 70 % 1021,1 hPa 0,0 mm 6,7 km/h (2 Bft) N-NO 22 10,7 C 13,7 km/h (3 Bft)
16.06.2015 14:45 16,4 C 18,2 C 70 % 1021,1 hPa 0,0 mm 6,7 km/h (2 Bft) O-NO 67 10,9 C 9,3 km/h (2 Bft)
16.06.2015 14:50 16,5 C 18,6 C 70 % 1021,1 hPa 0,0 mm 4,9 km/h (1 Bft) O-NO 67 11,0 C 3,6 km/h (1 Bft)
16.06.2015 14:55 16,7 C 19,2 C 69 % 1020,9 hPa 0,0 mm 4,4 km/h (1 Bft) NO 45 11,0 C 4,1 km/h (1 Bft)
16.06.2015 15:00 17,0 C 20,3 C 69 % 1020,9 hPa 0,0 mm 4,1 km/h (1 Bft) O-NO 67 11,3 C 7,0 km/h (2 Bft)
16.06.2015 15:05 17,0 C 20,4 C 68 % 1020,9 hPa 0,0 mm 5,2 km/h (1 Bft) O-SO 112 11,0 C 4,4 km/h (1 Bft)
16.06.2015 15:10 17,3 C 21,1 C 66 % 1020,9 hPa 0,0 mm 6,0 km/h (2 Bft) O-NO 67 10,9 C 3,4 km/h (1 Bft)
16.06.2015 15:15 17,1 C 20,7 C 65 % 1020,7 hPa 0,0 mm 5,4 km/h (1 Bft) O-NO 67 10,5 C 6,0 km/h (2 Bft)
16.06.2015 15:20 17,4 C 20,8 C 65 % 1020,7 hPa 0,0 mm 3,4 km/h (1 Bft) S 180 10,8 C 11,1 km/h (2 Bft)
16.06.2015 15:25 18,3 C 22,2 C 65 % 1020,7 hPa 0,0 mm 2,6 km/h (1 Bft) N-NO 22 11,6 C 4,7 km/h (1 Bft)
16.06.2015 15:30 18,2 C 23,3 C 63 % 1020,7 hPa 0,0 mm 5,2 km/h (1 Bft) O-NO 67 11,0 C 10,6 km/h (2 Bft)
16.06.2015 15:35 17,8 C 22,5 C 64 % 1020,8 hPa 0,0 mm 5,7 km/h (1 Bft) NO 45 10,9 C 4,7 km/h (1 Bft)
16.06.2015 15:40 17,4 C 21,1 C 64 % 1020,8 hPa 0,0 mm 5,7 km/h (1 Bft) NO 45 10,5 C 10,9 km/h (2 Bft)
16.06.2015 15:45 17,3 C 20,2 C 64 % 1020,8 hPa 0,0 mm 5,2 km/h (1 Bft) N-NO 22 10,4 C 4,1 km/h (1 Bft)
16.06.2015 15:50 17,2 C 19,4 C 64 % 1020,8 hPa 0,0 mm 6,2 km/h (2 Bft) NO 45 10,3 C 3,1 km/h (1 Bft)
16.06.2015 15:55 17,2 C 19,2 C 64 % 1020,6 hPa 0,0 mm 6,2 km/h (2 Bft) NW 315 10,3 C 9,3 km/h (2 Bft)
16.06.2015 16:00 17,1 C 18,6 C 64 % 1020,6 hPa 0,0 mm 5,4 km/h (1 Bft) O-NO 67 10,2 C 3,1 km/h (1 Bft)
16.06.2015 16:05 16,9 C 18,2 C 65 % 1020,6 hPa 0,0 mm 3,4 km/h (1 Bft) N-NO 22 10,3 C 0,0 km/h (0 Bft)
16.06.2015 16:10 16,7 C 18,0 C 66 % 1020,6 hPa 0,0 mm 1,8 km/h (1 Bft) N-NW 337 10,3 C 8,0 km/h (2 Bft)
16.06.2015 16:15 16,7 C 17,8 C 66 % 1020,5 hPa 0,0 mm 3,4 km/h (1 Bft) NO 45 10,3 C 2,8 km/h (1 Bft)
16.06.2015 16:20 16,6 C 17,6 C 66 % 1020,5 hPa 0,0 mm 4,7 km/h (1 Bft) O 90 10,2 C 3,9 km/h (1 Bft)
16.06.2015 16:23 16,6 C 17,6 C 66 % 1020,5 hPa 0,0 mm 4,7 km/h (1 Bft) O 90 10,2 C 3,9 km/h (1 Bft)
16.06.2015 16:25 16,6 C 17,8 C 66 % 1020,5 hPa 0,0 mm 2,1 km/h (1 Bft) O-SO 112 10,2 C 0,0 km/h (0 Bft)
16.06.2015 16:29 16,6 C 18,2 C 67 % 1020,5 hPa 0,0 mm 0,5 km/h (0 Bft) SO 135 10,4 C 0,0 km/h (0 Bft)
16.06.2015 16:35 16,7 C 18,5 C 67 % 1020,4 hPa 0,0 mm 0,3 km/h (0 Bft) SO 135 10,5 C 3,1 km/h (1 Bft)
16.06.2015 16:40 16,8 C 18,8 C 66 % 1020,4 hPa 0,0 mm 1,3 km/h (1 Bft) O-NO 67 10,4 C 3,1 km/h (1 Bft)
16.06.2015 16:45 16,9 C 18,7 C 66 % 1020,4 hPa 0,0 mm 1,6 km/h (1 Bft) NO 45 10,5 C 0,0 km/h (0 Bft)
16.06.2015 16:50 16,6 C 18,3 C 65 % 1020,4 hPa 0,0 mm 0,8 km/h (0 Bft) SO 135 10,0 C 0,0 km/h (0 Bft)
16.06.2015 16:55 16,4 C 18,1 C 66 % 1020,4 hPa 0,0 mm 0,5 km/h (0 Bft) SO 135 10,0 C 0,0 km/h (0 Bft)
16.06.2015 17:00 16,3 C 18,2 C 67 % 1020,4 hPa 0,0 mm 0,0 km/h (0 Bft) NO 45 10,2 C 0,0 km/h (0 Bft)
16.06.2015 17:05 16,3 C 18,5 C 67 % 1020,4 hPa 0,0 mm 1,0 km/h (0 Bft) NO 45 10,2 C 3,6 km/h (1 Bft)
16.06.2015 17:10 16,7 C 18,6 C 65 % 1020,4 hPa 0,0 mm 3,1 km/h (1 Bft) NO 45 10,1 C 7,3 km/h (2 Bft)
16.06.2015 17:15 16,7 C 18,7 C 63 % 1020,3 hPa 0,0 mm 3,4 km/h (1 Bft) NO 45 9,6 C 0,0 km/h (0 Bft)
16.06.2015 17:20 17,1 C 19,2 C 63 % 1020,3 hPa 0,0 mm 1,3 km/h (1 Bft) O-NO 67 10,0 C 0,0 km/h (0 Bft)
16.06.2015 17:25 17,3 C 19,6 C 63 % 1020,3 hPa 0,0 mm 0,0 km/h (0 Bft) O-NO 67 10,2 C 0,0 km/h (0 Bft)
16.06.2015 17:30 17,2 C 19,9 C 64 % 1020,3 hPa 0,0 mm 0,0 km/h (0 Bft) O-SO 112 10,3 C 3,1 km/h (1 Bft)
16.06.2015 17:35 16,9 C 19,8 C 64 % 1020,2 hPa 0,0 mm 0,5 km/h (0 Bft) SO 135 10,0 C 3,9 km/h (1 Bft)
16.06.2015 17:40 16,9 C 19,5 C 65 % 1020,2 hPa 0,0 mm 1,0 km/h (0 Bft) O-NO 67 10,3 C 3,4 km/h (1 Bft)
16.06.2015 17:45 16,9 C 19,3 C 64 % 1020,2 hPa 0,0 mm 1,0 km/h (0 Bft) SO 135 10,0 C 0,0 km/h (0 Bft)
16.06.2015 17:50 16,8 C 19,0 C 64 % 1020,2 hPa 0,0 mm 0,8 km/h (0 Bft) W-SW 247 10,0 C 0,0 km/h (0 Bft)
16.06.2015 17:55 16,7 C 18,8 C 65 % 1020,2 hPa 0,0 mm 0,5 km/h (0 Bft) W-SW 247 10,1 C 0,0 km/h (0 Bft)
16.06.2015 18:00 16,6 C 18,4 C 65 % 1020,2 hPa 0,0 mm 1,6 km/h (1 Bft) NW 315 10,0 C 4,9 km/h (1 Bft)
16.06.2015 18:05 16,7 C 18,0 C 64 % 1020,2 hPa 0,0 mm 2,3 km/h (1 Bft) N-NO 22 9,9 C 0,0 km/h (0 Bft)
16.06.2015 18:10 16,7 C 18,0 C 65 % 1020,2 hPa 0,0 mm 1,6 km/h (1 Bft) O-NO 67 10,1 C 0,0 km/h (0 Bft)
16.06.2015 18:15 16,6 C 18,2 C 65 % 1020,1 hPa 0,0 mm 0,3 km/h (0 Bft) O-SO 112 10,0 C 3,1 km/h (1 Bft)
16.06.2015 18:20 16,6 C 18,4 C 66 % 1020,1 hPa 0,0 mm 0,5 km/h (0 Bft) O-SO 112 10,2 C 0,0 km/h (0 Bft)
16.06.2015 18:25 16,7 C 18,5 C 66 % 1020,1 hPa 0,0 mm 0,5 km/h (0 Bft) O-SO 112 10,3 C 0,0 km/h (0 Bft)
16.06.2015 18:30 16,7 C 18,5 C 67 % 1020,1 hPa 0,0 mm 1,8 km/h (1 Bft) NO 45 10,5 C 3,6 km/h (1 Bft)
16.06.2015 18:35 16,7 C 18,2 C 68 % 1020,2 hPa 0,0 mm 2,6 km/h (1 Bft) O-SO 112 10,8 C 0,0 km/h (0 Bft)
16.06.2015 18:40 16,6 C 18,0 C 68 % 1020,2 hPa 0,0 mm 2,6 km/h (1 Bft) W-SW 247 10,7 C 7,3 km/h (2 Bft)
16.06.2015 18:45 16,4 C 17,7 C 68 % 1020,2 hPa 0,0 mm 1,6 km/h (1 Bft) SO 135 10,5 C 0,0 km/h (0 Bft)
16.06.2015 18:50 16,1 C 17,2 C 69 % 1020,2 hPa 0,0 mm 1,0 km/h (0 Bft) S-SO 157 10,4 C 0,0 km/h (0 Bft)
16.06.2015 18:55 15,9 C 16,8 C 70 % 1020,2 hPa 0,0 mm 0,0 km/h (0 Bft) SO 135 10,4 C 0,0 km/h (0 Bft)
16.06.2015 19:00 15,7 C 16,6 C 71 % 1020,2 hPa 0,0 mm 0,0 km/h (0 Bft) SO 135 10,5 C 0,0 km/h (0 Bft)
16.06.2015 19:05 15,5 C 16,5 C 73 % 1020,2 hPa 0,0 mm 0,0 km/h (0 Bft) SO 135 10,7 C 0,0 km/h (0 Bft)
16.06.2015 19:10 15,8 C 17,1 C 73 % 1020,2 hPa 0,0 mm 0,3 km/h (0 Bft) NO 45 11,0 C 4,9 km/h (1 Bft)
16.06.2015 19:15 15,9 C 18,0 C 73 % 1020,2 hPa 0,0 mm 2,6 km/h (1 Bft) O-NO 67 11,1 C 8,3 km/h (2 Bft)
16.06.2015 19:20 16,0 C 17,8 C 72 % 1020,2 hPa 0,0 mm 4,9 km/h (1 Bft) NO 45 11,0 C 8,5 km/h (2 Bft)
16.06.2015 19:25 16,1 C 17,8 C 72 % 1020,2 hPa 0,0 mm 3,9 km/h (1 Bft) N-NO 22 11,0 C 0,0 km/h (0 Bft)
16.06.2015 19:30 16,1 C 17,8 C 71 % 1020,2 hPa 0,0 mm 0,5 km/h (0 Bft) O-SO 112 10,8 C 0,0 km/h (0 Bft)
16.06.2015 19:35 16,1 C 17,6 C 71 % 1020,2 hPa 0,0 mm 0,3 km/h (0 Bft) SO 135 10,8 C 3,9 km/h (1 Bft)
16.06.2015 19:40 16,1 C 17,7 C 71 % 1020,2 hPa 0,0 mm 0,3 km/h (0 Bft) O-SO 112 10,8 C 0,0 km/h (0 Bft)
16.06.2015 19:45 16,3 C 18,2 C 71 % 1020,2 hPa 0,0 mm 0,3 km/h (0 Bft) O 90 11,0 C 0,0 km/h (0 Bft)
16.06.2015 19:50 16,4 C 19,2 C 71 % 1020,2 hPa 0,0 mm 0,3 km/h (0 Bft) NO 45 11,1 C 8,5 km/h (2 Bft)
16.06.2015 19:55 16,1 C 18,9 C 70 % 1020,3 hPa 0,0 mm 1,3 km/h (1 Bft) NO 45 10,6 C 0,0 km/h (0 Bft)
16.06.2015 20:00 15,8 C 17,6 C 72 % 1020,3 hPa 0,0 mm 1,3 km/h (1 Bft) O-SO 112 10,8 C 0,0 km/h (0 Bft)
16.06.2015 20:05 15,6 C 17,0 C 72 % 1020,3 hPa 0,0 mm 0,3 km/h (0 Bft) O-SO 112 10,6 C 0,0 km/h (0 Bft)
16.06.2015 20:10 15,3 C 16,3 C 72 % 1020,3 hPa 0,0 mm 0,0 km/h (0 Bft) S-SO 157 10,3 C 0,0 km/h (0 Bft)
16.06.2015 20:15 15,1 C 15,9 C 73 % 1020,4 hPa 0,0 mm 0,0 km/h (0 Bft) SO 135 10,3 C 0,0 km/h (0 Bft)
16.06.2015 20:20 14,9 C 15,5 C 74 % 1020,4 hPa 0,0 mm 0,0 km/h (0 Bft) S-SO 157 10,3 C 0,0 km/h (0 Bft)
16.06.2015 20:25 14,9 C 15,3 C 74 % 1020,4 hPa 0,0 mm 0,0 km/h (0 Bft) SO 135 10,3 C 0,0 km/h (0 Bft)
16.06.2015 20:30 14,7 C 15,0 C 75 % 1020,4 hPa 0,0 mm 0,0 km/h (0 Bft) O-SO 112 10,3 C 2,6 km/h (1 Bft)
16.06.2015 20:35 14,7 C 14,9 C 75 % 1020,4 hPa 0,0 mm 0,0 km/h (0 Bft) S 180 10,3 C 0,0 km/h (0 Bft)
16.06.2015 20:40 14,6 C 14,7 C 76 % 1020,4 hPa 0,0 mm 0,0 km/h (0 Bft) S 180 10,4 C 0,0 km/h (0 Bft)
16.06.2015 20:45 14,5 C 14,6 C 76 % 1020,4 hPa 0,0 mm 0,0 km/h (0 Bft) S-SO 157 10,3 C 0,0 km/h (0 Bft)
16.06.2015 20:50 14,4 C 14,4 C 76 % 1020,4 hPa 0,0 mm 0,0 km/h (0 Bft) S 180 10,2 C 3,1 km/h (1 Bft)
16.06.2015 20:55 14,3 C 14,3 C 77 % 1020,4 hPa 0,0 mm 0,0 km/h (0 Bft) S 180 10,3 C 0,0 km/h (0 Bft)
16.06.2015 21:00 14,2 C 14,1 C 77 % 1020,4 hPa 0,0 mm 0,3 km/h (0 Bft) O-SO 112 10,2 C 0,0 km/h (0 Bft)
16.06.2015 21:05 14,1 C 14,0 C 78 % 1020,4 hPa 0,0 mm 0,0 km/h (0 Bft) SO 135 10,3 C 0,0 km/h (0 Bft)
16.06.2015 21:10 13,9 C 13,8 C 78 % 1020,4 hPa 0,0 mm 0,0 km/h (0 Bft) SO 135 10,1 C 0,0 km/h (0 Bft)
16.06.2015 21:15 13,8 C 13,7 C 79 % 1020,5 hPa 0,0 mm 0,0 km/h (0 Bft) SO 135 10,2 C 0,0 km/h (0 Bft)
16.06.2015 21:20 13,6 C 13,5 C 79 % 1020,5 hPa 0,0 mm 0,0 km/h (0 Bft) S 180 10,0 C 0,0 km/h (0 Bft)
16.06.2015 21:25 13,5 C 13,4 C 79 % 1020,5 hPa 0,0 mm 0,0 km/h (0 Bft) SO 135 9,9 C 0,0 km/h (0 Bft)
16.06.2015 21:30 13,3 C 13,2 C 80 % 1020,5 hPa 0,0 mm 0,3 km/h (0 Bft) O-SO 112 9,9 C 0,0 km/h (0 Bft)
16.06.2015 21:35 13,2 C 13,1 C 80 % 1020,7 hPa 0,0 mm 0,3 km/h (0 Bft) S 180 9,8 C 0,0 km/h (0 Bft)
16.06.2015 21:40 12,9 C 12,8 C 82 % 1020,7 hPa 0,0 mm 0,3 km/h (0 Bft) S 180 9,9 C 2,8 km/h (1 Bft)
16.06.2015 21:45 12,9 C 12,8 C 82 % 1020,7 hPa 0,0 mm 0,3 km/h (0 Bft) S-SO 157 9,9 C 0,0 km/h (0 Bft)
16.06.2015 21:50 12,8 C 12,7 C 83 % 1020,7 hPa 0,0 mm 0,5 km/h (0 Bft) S-SO 157 10,0 C 0,0 km/h (0 Bft)
16.06.2015 21:55 12,7 C 12,6 C 83 % 1020,7 hPa 0,0 mm 0,3 km/h (0 Bft) S-SO 157 9,9 C 0,0 km/h (0 Bft)
16.06.2015 22:00 12,4 C 12,3 C 83 % 1020,7 hPa 0,0 mm 0,0 km/h (0 Bft) SO 135 9,6 C 0,0 km/h (0 Bft)
16.06.2015 22:05 12,3 C 12,2 C 82 % 1020,7 hPa 0,0 mm 0,0 km/h (0 Bft) S-SO 157 9,3 C 0,0 km/h (0 Bft)
16.06.2015 22:10 12,1 C 12,0 C 82 % 1020,7 hPa 0,0 mm 0,0 km/h (0 Bft) S-SW 202 9,1 C 0,0 km/h (0 Bft)
16.06.2015 22:15 12,1 C 12,0 C 82 % 1020,8 hPa 0,0 mm 0,0 km/h (0 Bft) S 180 9,1 C 0,0 km/h (0 Bft)
16.06.2015 22:20 12,1 C 12,0 C 83 % 1020,8 hPa 0,0 mm 0,0 km/h (0 Bft) SO 135 9,3 C 0,0 km/h (0 Bft)
16.06.2015 22:25 12,1 C 12,0 C 83 % 1020,8 hPa 0,0 mm 0,0 km/h (0 Bft) SO 135 9,3 C 0,0 km/h (0 Bft)
16.06.2015 22:30 12,2 C 12,1 C 83 % 1020,8 hPa 0,0 mm 0,5 km/h (0 Bft) S 180 9,4 C 4,7 km/h (1 Bft)
16.06.2015 22:35 12,3 C 12,3 C 84 % 1020,9 hPa 0,0 mm 1,6 km/h (1 Bft) S 180 9,7 C 0,0 km/h (0 Bft)
16.06.2015 22:40 12,4 C 12,4 C 84 % 1020,9 hPa 0,0 mm 1,3 km/h (1 Bft) S 180 9,8 C 0,0 km/h (0 Bft)
16.06.2015 22:45 12,5 C 12,4 C 84 % 1020,9 hPa 0,0 mm 0,3 km/h (0 Bft) S-SO 157 9,9 C 0,0 km/h (0 Bft)
16.06.2015 22:50 12,6 C 12,6 C 85 % 1020,9 hPa 0,0 mm 0,8 km/h (0 Bft) S-SO 157 10,1 C 0,0 km/h (0 Bft)
16.06.2015 22:55 12,6 C 12,6 C 85 % 1020,9 hPa 0,0 mm 0,8 km/h (0 Bft) S-SO 157 10,1 C 0,0 km/h (0 Bft)
16.06.2015 23:00 12,5 C 12,5 C 85 % 1020,9 hPa 0,0 mm 0,0 km/h (0 Bft) SO 135 10,0 C 0,0 km/h (0 Bft)
16.06.2015 23:05 12,4 C 12,3 C 86 % 1020,9 hPa 0,0 mm 0,0 km/h (0 Bft) O-SO 112 10,1 C 0,0 km/h (0 Bft)
16.06.2015 23:10 12,3 C 12,2 C 86 % 1020,9 hPa 0,0 mm 0,0 km/h (0 Bft) O-SO 112 10,0 C 0,0 km/h (0 Bft)
16.06.2015 23:15 12,2 C 12,1 C 86 % 1021,0 hPa 0,0 mm 0,0 km/h (0 Bft) SO 135 9,9 C 0,0 km/h (0 Bft)
16.06.2015 23:20 12,3 C 12,1 C 86 % 1021,0 hPa 0,0 mm 0,0 km/h (0 Bft) S-SO 157 10,0 C 0,0 km/h (0 Bft)
16.06.2015 23:25 12,3 C 12,1 C 86 % 1021,0 hPa 0,0 mm 0,0 km/h (0 Bft) S-SO 157 10,0 C 0,0 km/h (0 Bft)
16.06.2015 23:30 12,3 C 12,1 C 87 % 1021,0 hPa 0,0 mm 0,0 km/h (0 Bft) S-SO 157 10,2 C 0,0 km/h (0 Bft)
16.06.2015 23:35 12,2 C 12,0 C 87 % 1021,2 hPa 0,0 mm 0,0 km/h (0 Bft) S 180 10,1 C 0,0 km/h (0 Bft)
16.06.2015 23:40 12,2 C 12,0 C 87 % 1021,2 hPa 0,0 mm 0,3 km/h (0 Bft) S-SO 157 10,1 C 0,0 km/h (0 Bft)
16.06.2015 23:45 12,2 C 12,0 C 87 % 1021,2 hPa 0,0 mm 0,0 km/h (0 Bft) S 180 10,1 C 0,0 km/h (0 Bft)
16.06.2015 23:50 12,0 C 12,0 C 85 % 1021,2 hPa 0,0 mm 0,0 km/h (0 Bft) S-SO 157 9,6 C 0,0 km/h (0 Bft)
16.06.2015 23:55 12,0 C 11,9 C 87 % 1021,2 hPa 0,0 mm 0,0 km/h (0 Bft) S 180 9,9 C 0,0 km/h (0 Bft)
_ Min-Zeit 23:55 23:55 17:25 18:30 - 23:55 - - 22:15 23:55
Minimum _ 12,0 C 11,9 C 63 % 1020,1 hPa - 0,0 km/h (0 Bft) - - 9,1 C 0,0 km/h (0 Bft)
_ Max-Zeit 15:25 11:00 06:35 11:50 03:05 11:45 - - 10:45 11:30
Maximum _ 18,3 C 24,1 C 92 % 1021,6 hPa 0,7 mm 10,4 km/h
W-NW (2 Bft)
- - 13,0 C 19,4 km/h
N-NW (3 Bft)
Durchschnitt _ 14,4 C 15,5 C 80 % 1020,6 hPa #0,7 mm 2,3 km/h (1 Bft) O-NO - 10,9 C 3,2 km/h (1 Bft)